Time;durP1;ratioP1;P1;durP2;ratioP2;P2;SDS_P1;SDS_P2;PMS_P1;PMS_P2;Temp;Humidity;BMP_temperature;BMP_pressure;BME280_temperature;BME280_humidity;BME280_pressure;Samples;Min_cycle;Max_cycle;Signal;HPM_P1;HPM_P2
2021/11/01 00:00:20;;;;;;;5.73;5.53;;;9.90;99.90;;;;;;5072290;28;20178;-68
2021/11/01 00:02:48;;;;;;;6.10;5.90;;;9.80;99.90;;;;;;5092410;28;20183;-67
2021/11/01 00:05:15;;;;;;;5.90;5.70;;;9.80;99.90;;;;;;5092467;28;20665;-67
2021/11/01 00:07:40;;;;;;;5.70;5.50;;;9.70;99.90;;;;;;5090950;28;20201;-68
2021/11/01 00:10:07;;;;;;;6.13;5.93;;;9.70;99.90;;;;;;5070550;28;20305;-67
2021/11/01 00:12:33;;;;;;;5.73;5.53;;;9.70;99.90;;;;;;5089359;28;20658;-67
2021/11/01 00:15:00;;;;;;;5.60;5.40;;;9.70;99.90;;;;;;5091940;28;20172;-67
2021/11/01 00:17:26;;;;;;;5.80;5.60;;;9.60;99.90;;;;;;5074504;28;20205;-66
2021/11/01 00:19:54;;;;;;;5.70;5.50;;;9.60;99.90;;;;;;5071654;28;20174;-67
2021/11/01 00:22:20;;;;;;;5.60;5.40;;;9.60;99.90;;;;;;5087110;28;20216;-68
2021/11/01 00:24:47;;;;;;;5.53;5.33;;;9.50;99.90;;;;;;5091859;28;20535;-67
2021/11/01 00:27:13;;;;;;;5.60;5.40;;;9.60;99.90;;;;;;5077895;28;20184;-67
2021/11/01 00:29:39;;;;;;;6.33;6.13;;;9.50;99.90;;;;;;5071143;28;20239;-67
2021/11/01 00:32:05;;;;;;;6.63;6.37;;;9.50;99.90;;;;;;5082241;28;20272;-68
2021/11/01 00:34:31;;;;;;;6.20;6.00;;;9.40;99.90;;;;;;5082236;28;20178;-68
2021/11/01 00:36:56;;;;;;;6.00;5.80;;;9.40;99.90;;;;;;5079631;28;20482;-67
2021/11/01 00:39:22;;;;;;;6.30;6.10;;;9.50;99.90;;;;;;5085339;28;20205;-67
2021/11/01 00:41:48;;;;;;;6.20;6.00;;;9.40;99.90;;;;;;5071448;28;20185;-67
2021/11/01 00:44:13;;;;;;;5.90;5.70;;;9.40;99.90;;;;;;5074561;28;20177;-67
2021/11/01 00:46:39;;;;;;;5.63;5.43;;;9.40;99.90;;;;;;5091590;28;20260;-67
2021/11/01 00:49:06;;;;;;;5.83;5.63;;;9.30;99.90;;;;;;5087043;28;20220;-68
2021/11/01 00:51:36;;;;;;;6.00;5.80;;;9.30;99.90;;;;;;5071239;28;20560;-68
2021/11/01 00:54:02;;;;;;;5.83;5.63;;;9.20;99.90;;;;;;5073104;28;20166;-67
2021/11/01 00:56:27;;;;;;;6.27;6.07;;;9.20;99.90;;;;;;5091685;28;20705;-67
2021/11/01 00:58:53;;;;;;;6.10;5.90;;;9.20;99.90;;;;;;5091291;28;20193;-67
2021/11/01 01:01:19;;;;;;;6.10;5.90;;;9.10;99.90;;;;;;5075463;28;20555;-67
2021/11/01 01:03:45;;;;;;;6.20;5.97;;;9.00;99.90;;;;;;5089549;28;20169;-67
2021/11/01 01:06:12;;;;;;;5.87;5.67;;;8.90;99.90;;;;;;5095822;28;20172;-67
2021/11/01 01:08:38;;;;;;;5.97;5.77;;;8.90;99.90;;;;;;5081048;28;20194;-67
2021/11/01 01:11:05;;;;;;;5.90;5.70;;;8.90;99.90;;;;;;5075263;28;20198;-67
2021/11/01 01:13:36;;;;;;;5.77;5.57;;;8.80;99.90;;;;;;5074305;28;20539;-67
2021/11/01 01:18:39;;;;;;;5.50;5.30;;;8.70;99.90;;;;;;5087980;28;20193;-68
2021/11/01 01:22:13;;;;;;;5.50;5.30;;;8.70;99.90;;;;;;5093987;28;20173;-67
2021/11/01 01:23:57;;;;;;;5.90;5.70;;;8.60;99.90;;;;;;5079608;28;20236;-67
2021/11/01 01:26:24;;;;;;;6.00;5.80;;;8.60;99.90;;;;;;5075141;28;20181;-68
2021/11/01 01:28:50;;;;;;;5.70;5.50;;;8.50;99.90;;;;;;5086903;28;20199;-67
2021/11/01 01:31:16;;;;;;;5.50;5.30;;;8.50;99.90;;;;;;5094764;28;20175;-67
2021/11/01 01:33:42;;;;;;;5.93;5.73;;;8.50;99.90;;;;;;5095041;28;20181;-68
2021/11/01 01:36:08;;;;;;;5.43;5.23;;;8.50;99.90;;;;;;5087080;28;20178;-68
2021/11/01 01:38:35;;;;;;;6.07;5.77;;;8.50;99.90;;;;;;5074820;28;20209;-68
2021/11/01 01:41:30;;;;;;;5.67;5.47;;;8.50;99.90;;;;;;5074823;28;20198;-67
2021/11/01 01:43:58;;;;;;;5.70;5.50;;;8.50;99.90;;;;;;5056589;28;20186;-68
2021/11/01 01:46:26;;;;;;;5.80;5.60;;;8.50;99.90;;;;;;5073466;28;20599;-68
2021/11/01 01:48:53;;;;;;;5.73;5.53;;;8.50;99.90;;;;;;5074390;28;20698;-67
2021/11/01 01:51:20;;;;;;;6.20;6.00;;;8.60;99.90;;;;;;5082274;28;20209;-68
2021/11/01 01:53:46;;;;;;;6.10;5.90;;;8.50;99.90;;;;;;5094802;28;20166;-67
2021/11/01 01:56:12;;;;;;;5.73;5.53;;;8.60;99.90;;;;;;5087050;28;20669;-68
2021/11/01 01:58:45;;;;;;;6.00;5.80;;;8.50;99.90;;;;;;5076526;28;20186;-68
2021/11/01 02:01:15;;;;;;;5.67;5.47;;;8.50;99.90;;;;;;5076870;28;20185;-68
2021/11/01 02:03:45;;;;;;;5.80;5.60;;;8.50;99.90;;;;;;5091283;28;20174;-68
2021/11/01 02:06:31;;;;;;;6.40;6.20;;;8.50;99.90;;;;;;5073331;28;20170;-67
2021/11/01 02:09:15;;;;;;;6.20;6.00;;;8.50;99.90;;;;;;5045862;28;20201;-67
2021/11/01 02:12:01;;;;;;;5.90;5.70;;;8.50;99.90;;;;;;5093007;28;20169;-68
2021/11/01 02:14:39;;;;;;;5.70;5.50;;;8.50;99.90;;;;;;5087603;28;20174;-68
2021/11/01 02:17:06;;;;;;;5.97;5.77;;;8.50;99.90;;;;;;5074184;28;20200;-67
2021/11/01 02:19:45;;;;;;;6.00;5.80;;;8.50;99.90;;;;;;5074095;28;20182;-67
2021/11/01 02:22:15;;;;;;;6.20;6.00;;;8.60;99.90;;;;;;5074336;28;20202;-68
2021/11/01 02:25:03;;;;;;;5.97;5.77;;;8.60;99.90;;;;;;5075228;28;20209;-67
2021/11/01 02:27:32;;;;;;;6.00;5.80;;;8.60;99.90;;;;;;5078301;28;20622;-67
2021/11/01 02:29:59;;;;;;;5.80;5.60;;;8.70;99.90;;;;;;5073619;28;20229;-67
2021/11/01 02:32:26;;;;;;;5.80;5.60;;;8.70;99.90;;;;;;5078561;28;20176;-67
2021/11/01 02:34:53;;;;;;;6.17;5.97;;;8.70;99.90;;;;;;5094028;28;20582;-67
2021/11/01 02:37:19;;;;;;;6.10;5.90;;;8.70;99.90;;;;;;5093233;28;20170;-67
2021/11/01 02:39:46;;;;;;;6.97;6.67;;;8.70;99.90;;;;;;5093523;28;20252;-67
2021/11/01 02:42:13;;;;;;;7.90;7.60;;;8.70;99.90;;;;;;5079267;28;20178;-67
2021/11/01 02:44:50;;;;;;;7.37;7.07;;;8.70;99.90;;;;;;5073510;28;20178;-67
2021/11/01 02:47:15;;;;;;;7.00;6.70;;;8.70;99.90;;;;;;5086387;28;20276;-68
2021/11/01 02:49:41;;;;;;;6.73;6.43;;;8.70;99.90;;;;;;5078050;28;20273;-67
2021/11/01 02:52:07;;;;;;;6.40;6.20;;;8.60;99.90;;;;;;5073358;28;20170;-67
2021/11/01 02:54:32;;;;;;;5.80;5.60;;;8.60;99.90;;;;;;5073527;28;20671;-68
2021/11/01 02:56:59;;;;;;;6.27;6.07;;;8.60;99.90;;;;;;5078363;28;20174;-67
2021/11/01 02:59:25;;;;;;;6.73;6.43;;;8.60;99.90;;;;;;5073263;28;20182;-68
2021/11/01 03:01:51;;;;;;;6.83;6.53;;;8.50;99.90;;;;;;5087567;28;20177;-68
2021/11/01 03:04:17;;;;;;;6.40;6.20;;;8.40;99.90;;;;;;5093990;28;20184;-67
2021/11/01 03:06:43;;;;;;;7.00;6.70;;;8.40;99.90;;;;;;5080597;28;20269;-68
2021/11/01 03:09:09;;;;;;;6.40;6.20;;;8.40;99.90;;;;;;5072947;28;20193;-67
2021/11/01 03:11:35;;;;;;;6.80;6.50;;;8.30;99.90;;;;;;5082398;28;20213;-67
2021/11/01 03:14:01;;;;;;;7.03;6.73;;;8.30;99.90;;;;;;5075395;28;20178;-67
2021/11/01 03:16:28;;;;;;;6.40;6.20;;;8.30;99.90;;;;;;5074390;28;20179;-70
2021/11/01 03:19:03;;;;;;;6.57;6.33;;;8.30;99.90;;;;;;5075974;28;20186;-71
2021/11/01 03:21:31;;;;;;;7.10;6.80;;;8.20;99.90;;;;;;5084799;28;20580;-70
2021/11/01 03:23:58;;;;;;;6.67;6.37;;;8.20;99.90;;;;;;5095888;28;20177;-73
2021/11/01 03:26:26;;;;;;;6.70;6.40;;;8.20;99.90;;;;;;5094514;28;20177;-70
2021/11/01 03:28:55;;;;;;;6.87;6.57;;;8.20;99.90;;;;;;5093090;28;20266;-69
2021/11/01 03:31:23;;;;;;;6.83;6.53;;;8.20;99.90;;;;;;5093126;28;20174;-72
2021/11/01 03:33:53;;;;;;;6.90;6.60;;;8.20;99.90;;;;;;5074650;28;20174;-72
2021/11/01 03:36:19;;;;;;;6.87;6.57;;;8.20;99.90;;;;;;5076375;28;20249;-72
2021/11/01 03:38:46;;;;;;;7.03;6.73;;;8.20;99.90;;;;;;5075634;28;20198;-71
2021/11/01 03:41:13;;;;;;;6.33;6.13;;;8.20;99.90;;;;;;5075667;28;20189;-71
2021/11/01 03:43:44;;;;;;;6.23;6.03;;;8.20;99.90;;;;;;5086672;28;20180;-70
2021/11/01 03:46:11;;;;;;;6.17;5.97;;;8.10;99.90;;;;;;5075758;28;20181;-72
2021/11/01 03:48:39;;;;;;;6.20;6.00;;;8.20;99.90;;;;;;5070702;22;20383;-68
2021/11/01 03:51:10;;;;;;;6.13;5.93;;;8.20;99.90;;;;;;5053548;28;20734;-70
2021/11/01 03:53:37;;;;;;;6.40;6.20;;;8.20;99.90;;;;;;5052681;28;20256;-71
2021/11/01 03:56:04;;;;;;;6.60;6.33;;;8.20;99.90;;;;;;5053788;28;20175;-69
2021/11/01 03:58:30;;;;;;;6.70;6.40;;;8.20;99.90;;;;;;5054091;28;20190;-69
2021/11/01 04:00:56;;;;;;;6.57;6.27;;;8.20;99.90;;;;;;5053625;28;20209;-72
2021/11/01 04:03:27;;;;;;;6.40;6.20;;;8.20;99.90;;;;;;5052641;28;20171;-68
2021/11/01 04:05:59;;;;;;;6.37;6.17;;;8.10;99.90;;;;;;5053294;28;20182;-68
2021/11/01 04:08:24;;;;;;;6.30;6.10;;;8.10;99.90;;;;;;5052558;28;20202;-70
2021/11/01 04:10:50;;;;;;;6.30;6.10;;;8.10;99.90;;;;;;5052987;28;20268;-70
2021/11/01 04:13:16;;;;;;;6.13;5.93;;;8.10;99.90;;;;;;5053374;28;20209;-71
2021/11/01 04:15:45;;;;;;;5.80;5.60;;;8.00;99.90;;;;;;5053123;28;20171;-71
2021/11/01 04:18:13;;;;;;;7.30;7.00;;;8.00;99.90;;;;;;5053539;28;20286;-69
2021/11/01 04:20:51;;;;;;;6.00;5.80;;;8.00;99.90;;;;;;5053212;28;20179;-67
2021/11/01 04:23:18;;;;;;;6.27;6.07;;;8.00;99.90;;;;;;5053256;28;20179;-69
2021/11/01 04:25:44;;;;;;;6.20;6.00;;;7.90;99.90;;;;;;5053145;28;20178;-71
2021/11/01 04:28:10;;;;;;;6.00;5.80;;;7.90;99.90;;;;;;5053462;28;20294;-70
2021/11/01 04:30:40;;;;;;;6.20;6.00;;;7.90;99.90;;;;;;5051579;28;20237;-71
2021/11/01 04:33:13;;;;;;;6.30;6.10;;;7.80;99.90;;;;;;5053136;28;20179;-70
2021/11/01 04:35:39;;;;;;;6.40;6.20;;;7.70;99.90;;;;;;5051289;28;20543;-68
2021/11/01 04:38:18;;;;;;;6.43;6.23;;;7.70;99.90;;;;;;5053504;28;20660;-69
2021/11/01 04:54:21;;;;;;;6.47;6.27;;;7.50;99.90;;;;;;5052908;28;20266;-66
2021/11/01 04:56:47;;;;;;;6.57;6.33;;;7.50;99.90;;;;;;5051104;28;20171;-66
2021/11/01 04:59:13;;;;;;;6.30;6.10;;;7.50;99.90;;;;;;5051058;28;20201;-66
2021/11/01 05:01:47;;;;;;;6.00;5.80;;;7.50;99.90;;;;;;5050836;28;20171;-66
2021/11/01 05:04:16;;;;;;;5.90;5.70;;;7.40;99.90;;;;;;5051743;28;20663;-66
2021/11/01 05:06:50;;;;;;;5.67;5.47;;;7.40;99.90;;;;;;5051088;28;20547;-67
2021/11/01 05:09:21;;;;;;;6.10;5.90;;;7.40;99.90;;;;;;5050992;28;20199;-67
2021/11/01 05:14:21;;;;;;;6.50;6.30;;;7.40;99.90;;;;;;5051394;28;20263;-67
2021/11/01 05:17:03;;;;;;;6.13;5.93;;;7.40;99.90;;;;;;5050996;28;20202;-67
2021/11/01 05:19:32;;;;;;;6.10;5.90;;;7.40;99.90;;;;;;5050889;28;20194;-66
2021/11/01 05:22:03;;;;;;;6.03;5.83;;;7.50;99.90;;;;;;5051076;28;20179;-66
2021/11/01 05:30:41;;;;;;;6.80;6.50;;;7.70;99.90;;;;;;5030984;28;20211;-66
2021/11/01 05:33:58;;;;;;;7.60;7.30;;;7.80;99.90;;;;;;5050882;28;20190;-67
2021/11/01 05:35:54;;;;;;;6.73;6.43;;;7.90;99.90;;;;;;5043325;28;20278;-66
2021/11/01 05:38:20;;;;;;;6.63;6.40;;;7.90;99.90;;;;;;5050815;28;20249;-67
2021/11/01 05:40:45;;;;;;;6.80;6.50;;;8.00;99.90;;;;;;5050379;28;20183;-66
2021/11/01 05:43:11;;;;;;;6.40;6.20;;;8.10;99.90;;;;;;5051048;28;20534;-65
2021/11/01 05:45:37;;;;;;;6.77;6.47;;;8.10;99.90;;;;;;5052166;28;20249;-67
2021/11/01 05:48:03;;;;;;;6.47;6.27;;;8.10;99.90;;;;;;5054683;28;20234;-67
2021/11/01 05:50:34;;;;;;;6.67;6.37;;;8.20;99.90;;;;;;5052879;28;20206;-67
2021/11/01 05:53:02;;;;;;;6.40;6.20;;;8.20;99.90;;;;;;5054690;28;20179;-66
2021/11/01 06:13:31;;;;;;;5.90;5.70;;;8.30;99.90;;;;;;5053454;28;20186;-66
2021/11/01 06:15:59;;;;;;;6.00;5.80;;;8.20;99.90;;;;;;5053947;28;20424;-66
2021/11/01 06:18:35;;;;;;;5.70;5.50;;;8.20;99.90;;;;;;5053853;28;20198;-67
2021/11/01 06:21:02;;;;;;;6.20;6.00;;;8.20;99.90;;;;;;5054021;28;20247;-67
2021/11/01 06:23:28;;;;;;;6.10;5.90;;;8.20;99.90;;;;;;5053968;28;20179;-66
2021/11/01 06:25:53;;;;;;;6.07;5.87;;;8.20;99.90;;;;;;5053922;28;20181;-66
2021/11/01 06:28:19;;;;;;;6.10;5.90;;;8.10;99.90;;;;;;5053671;28;20205;-67
2021/11/01 06:31:22;;;;;;;6.27;6.07;;;8.10;99.90;;;;;;5053513;28;20596;-67
2021/11/01 06:39:17;;;;;;;6.00;5.80;;;8.10;99.90;;;;;;5053799;28;20251;-67
2021/11/01 06:57:27;;;;;;;6.10;5.90;;;8.30;99.90;;;;;;5052753;28;20167;-66
2021/11/01 08:21:46;;;;;;;5.00;4.80;;;13.70;99.90;;;;;;5051755;28;20228;-66
2021/11/01 08:34:25;;;;;;;5.20;5.00;;;14.50;99.90;;;;;;5051819;28;20377;-66
2021/11/01 08:35:32;;;;;;;5.30;5.10;;;14.30;99.90;;;;;;5051260;28;20167;-66
2021/11/01 08:45:59;;;;;;;6.63;6.33;;;12.90;99.90;;;;;;5051259;28;20170;-66
2021/11/01 08:48:42;;;;;;;5.43;5.23;;;12.70;99.90;;;;;;5050018;28;20210;-66
2021/11/01 09:20:20;;;;;;;5.00;4.70;;;16.10;99.90;;;;;;5051710;28;20232;-66
2021/11/01 09:23:07;;;;;;;5.00;4.60;;;16.30;99.90;;;;;;5054925;28;20179;-66
2021/11/01 09:28:26;;;;;;;5.00;4.60;;;16.70;99.90;;;;;;5053884;28;20202;-66
2021/11/01 09:36:27;;;;;;;5.07;4.60;;;17.20;99.90;;;;;;5055161;28;20209;-66
2021/11/01 09:41:19;;;;;;;4.77;4.47;;;16.90;99.90;;;;;;5054698;28;20170;-66
2021/11/01 09:43:48;;;;;;;5.40;5.00;;;16.90;99.90;;;;;;5054273;28;20255;-66
2021/11/01 09:46:14;;;;;;;5.20;4.90;;;17.20;99.90;;;;;;5054670;28;20254;-66
2021/11/01 09:48:40;;;;;;;5.40;5.00;;;17.50;99.90;;;;;;5054675;28;20475;-66
2021/11/01 09:51:07;;;;;;;5.30;4.90;;;17.30;99.90;;;;;;5054246;28;20198;-66
2021/11/01 09:53:40;;;;;;;4.97;4.67;;;17.10;99.90;;;;;;5054388;28;20170;-66
2021/11/01 09:56:17;;;;;;;5.30;5.00;;;16.90;99.90;;;;;;5054594;28;20163;-66
2021/11/01 10:01:28;;;;;;;4.70;4.50;;;16.80;99.90;;;;;;5054542;28;20551;-66
2021/11/01 10:03:54;;;;;;;5.30;4.80;;;16.50;99.90;;;;;;5053851;28;20175;-66
2021/11/01 10:06:24;;;;;;;5.20;4.80;;;16.30;99.90;;;;;;5054365;28;20218;-66
2021/11/01 10:08:54;;;;;;;5.00;4.70;;;16.10;99.90;;;;;;5053586;28;20691;-66
2021/11/01 10:11:25;;;;;;;4.80;4.50;;;15.80;99.90;;;;;;5054011;28;20218;-66
2021/11/01 10:13:56;;;;;;;4.90;4.60;;;15.90;99.90;;;;;;5052113;28;20193;-66
2021/11/01 10:19:38;;;;;;;4.93;4.63;;;17.00;99.90;;;;;;5033982;28;20222;-66
2021/11/01 10:22:31;;;;;;;3.90;3.70;;;17.60;99.90;;;;;;5037198;28;20222;-66
2021/11/01 10:24:57;;;;;;;4.63;4.30;;;17.90;99.90;;;;;;5053971;28;20167;-66
2021/11/01 10:27:37;;;;;;;4.77;4.47;;;18.00;99.90;;;;;;5053605;28;20182;-66
2021/11/01 10:30:14;;;;;;;4.37;4.13;;;18.30;99.90;;;;;;5053478;28;20199;-66
2021/11/01 10:32:49;;;;;;;4.20;4.00;;;18.40;99.90;;;;;;5052246;28;20167;-66
2021/11/01 10:35:20;;;;;;;4.57;4.30;;;18.20;99.90;;;;;;5053448;28;20171;-66
2021/11/01 10:43:47;;;;;;;5.07;4.80;;;17.60;99.90;;;;;;5053695;28;20175;-66
2021/11/01 11:11:02;;;;;;;4.70;4.40;;;17.20;99.90;;;;;;5052552;28;20214;-66
2021/11/01 11:13:35;;;;;;;4.97;4.47;;;17.30;99.90;;;;;;5053228;28;20698;-66
2021/11/01 11:16:03;;;;;;;4.53;4.23;;;17.60;99.90;;;;;;5052619;28;20174;-66
2021/11/01 11:21:29;;;;;;;4.30;4.00;;;18.00;99.90;;;;;;5052462;28;20265;-66
2021/11/01 11:40:22;;;;;;;8.53;6.73;;;17.70;99.90;;;;;;5052111;28;20182;-66
2021/11/01 11:48:25;;;;;;;5.20;4.90;;;17.80;99.90;;;;;;5051922;28;20597;-66
2021/11/01 11:51:03;;;;;;;6.00;5.60;;;17.60;99.90;;;;;;5051743;28;20245;-65
2021/11/01 11:53:29;;;;;;;5.00;4.70;;;17.70;99.90;;;;;;5052351;28;20166;-65
2021/11/01 11:56:10;;;;;;;4.73;4.53;;;17.60;99.90;;;;;;5051678;28;20717;-65
2021/11/01 11:58:41;;;;;;;5.30;5.00;;;17.60;99.90;;;;;;5043297;28;20222;-65
2021/11/01 12:01:29;;;;;;;4.60;4.30;;;17.50;99.90;;;;;;5032048;28;20182;-65
2021/11/01 12:03:57;;;;;;;4.80;4.40;;;17.60;99.90;;;;;;5033591;28;20551;-65
2021/11/01 12:06:47;;;;;;;5.00;4.70;;;17.70;99.90;;;;;;5052206;28;20229;-65
2021/11/01 12:09:20;;;;;;;4.80;4.50;;;17.60;99.90;;;;;;5051388;28;20209;-65
2021/11/01 12:17:32;;;;;;;5.20;4.80;;;17.80;99.90;;;;;;5051611;28;20601;-65
2021/11/01 12:20:07;;;;;;;4.67;4.40;;;17.60;99.90;;;;;;5051257;28;20203;-65
2021/11/01 12:22:36;;;;;;;4.80;4.40;;;17.50;99.90;;;;;;5051563;28;20690;-65
2021/11/01 12:25:07;;;;;;;5.00;3.90;;;17.60;99.90;;;;;;5051810;28;20711;-65
2021/11/01 12:27:36;;;;;;;4.50;4.20;;;17.50;99.90;;;;;;5051460;28;20197;-65
2021/11/01 12:30:09;;;;;;;5.13;4.73;;;17.50;99.90;;;;;;5050941;28;20234;-65
2021/11/01 12:32:40;;;;;;;4.90;4.70;;;17.40;99.90;;;;;;5051444;28;20202;-65
2021/11/01 12:35:15;;;;;;;5.50;4.40;;;17.30;99.90;;;;;;5051639;28;20587;-65
2021/11/01 12:37:51;;;;;;;5.50;5.20;;;17.30;99.90;;;;;;5051269;28;20178;-65
2021/11/01 12:40:32;;;;;;;5.00;4.70;;;17.30;99.90;;;;;;5050992;28;20174;-65
2021/11/01 12:57:02;;;;;;;4.13;3.93;;;17.10;99.90;;;;;;5045522;28;20263;-65
2021/11/01 12:59:42;;;;;;;4.67;4.37;;;17.10;99.90;;;;;;5050985;28;20225;-65
2021/11/01 13:02:15;;;;;;;4.70;4.40;;;17.20;99.90;;;;;;5050862;28;20182;-65
2021/11/01 13:04:42;;;;;;;5.67;4.50;;;17.30;99.90;;;;;;5050863;28;20721;-65
2021/11/01 13:12:59;;;;;;;4.90;4.50;;;18.00;99.90;;;;;;5031553;28;20207;-65
2021/11/01 13:18:13;;;;;;;4.63;4.13;;;17.60;99.90;;;;;;5050815;28;20226;-65
2021/11/01 13:20:57;;;;;;;4.67;4.47;;;17.70;99.90;;;;;;5049496;28;20213;-65
2021/11/01 13:23:26;;;;;;;4.40;4.20;;;17.70;99.90;;;;;;5051183;28;20175;-65
2021/11/01 13:26:07;;;;;;;4.70;4.30;;;17.70;99.90;;;;;;5050680;28;20210;-65
2021/11/01 13:37:11;;;;;;;4.80;4.40;;;17.90;99.90;;;;;;5050725;28;20691;-65
2021/11/01 13:39:38;;;;;;;4.50;4.20;;;18.20;99.90;;;;;;5050479;28;20574;-65
2021/11/01 13:42:11;;;;;;;4.80;4.60;;;18.00;99.90;;;;;;5050828;28;20178;-65
2021/11/01 13:44:37;;;;;;;4.80;4.50;;;17.80;99.90;;;;;;5050798;28;20231;-65
2021/11/01 13:47:05;;;;;;;4.87;4.67;;;17.70;99.90;;;;;;5050922;28;20175;-65
2021/11/01 13:49:34;;;;;;;5.03;4.83;;;17.60;99.90;;;;;;5050222;28;20222;-65
2021/11/01 13:54:54;;;;;;;5.10;4.70;;;17.60;99.90;;;;;;5049518;28;20222;-65
2021/11/01 13:57:20;;;;;;;4.63;4.33;;;17.80;99.90;;;;;;5050792;28;20181;-65
2021/11/01 14:00:14;;;;;;;5.67;5.20;;;17.80;99.90;;;;;;5050135;28;20195;-65
2021/11/01 14:32:05;;;;;;;5.07;4.77;;;16.40;99.90;;;;;;5053998;28;20195;-65
2021/11/01 15:09:54;;;;;;;5.73;5.23;;;16.30;99.90;;;;;;5052789;28;20220;-65
2021/11/01 15:32:08;;;;;;;5.30;4.90;;;15.70;99.90;;;;;;5030627;28;20208;-65
2021/11/01 15:34:43;;;;;;;5.20;4.70;;;15.50;99.90;;;;;;5051621;28;20776;-66
2021/11/01 16:20:04;;;;;;;6.00;5.60;;;12.40;99.90;;;;;;5051148;28;20752;-65
2021/11/01 16:22:30;;;;;;;6.50;6.00;;;12.30;99.90;;;;;;5051641;28;20187;-66
2021/11/01 16:24:58;;;;;;;6.10;5.80;;;12.30;99.90;;;;;;5051239;28;20326;-65
2021/11/01 16:27:24;;;;;;;6.20;5.70;;;12.20;99.90;;;;;;5051597;28;20177;-65
2021/11/01 16:30:14;;;;;;;7.27;6.67;;;12.20;99.90;;;;;;5049777;28;20210;-64
2021/11/01 16:32:45;;;;;;;6.00;5.70;;;12.10;99.90;;;;;;5051194;28;20628;-65
2021/11/01 16:35:16;;;;;;;5.87;5.57;;;12.00;99.90;;;;;;5051508;28;20527;-65
2021/11/01 16:38:03;;;;;;;5.70;5.50;;;11.80;99.90;;;;;;5051405;28;20659;-65
2021/11/01 16:40:29;;;;;;;7.03;6.23;;;11.70;99.90;;;;;;5051102;28;20170;-65
2021/11/01 16:42:55;;;;;;;6.00;5.63;;;11.60;99.90;;;;;;5051390;28;20206;-65
2021/11/01 16:45:37;;;;;;;6.60;6.20;;;11.50;99.90;;;;;;5050761;28;20236;-65
2021/11/01 16:48:02;;;;;;;6.53;6.13;;;11.40;99.90;;;;;;5051402;28;20593;-64
2021/11/01 16:50:28;;;;;;;6.20;5.80;;;11.30;99.90;;;;;;5050968;28;20246;-65
2021/11/01 16:52:55;;;;;;;5.90;5.60;;;11.20;99.90;;;;;;5051179;28;20635;-65
2021/11/01 16:55:28;;;;;;;6.10;5.80;;;11.10;99.90;;;;;;5051161;28;20183;-65
2021/11/01 16:58:01;;;;;;;6.00;5.70;;;11.10;99.90;;;;;;5050817;28;20643;-65
2021/11/01 17:03:08;;;;;;;6.63;6.23;;;11.10;99.90;;;;;;5050841;28;20590;-64
2021/11/01 17:22:12;;;;;;;6.47;5.93;;;10.80;99.90;;;;;;5051174;28;20178;-64
2021/11/01 17:24:51;;;;;;;6.63;6.23;;;10.70;99.90;;;;;;5050723;28;20665;-64
2021/11/01 17:30:31;;;;;;;6.77;6.40;;;10.60;99.90;;;;;;5050182;28;20211;-64
2021/11/01 17:36:01;;;;;;;7.30;6.27;;;10.40;99.90;;;;;;5030956;28;20184;-65
2021/11/01 18:40:22;;;;;;;8.60;7.50;;;9.20;99.90;;;;;;5052949;28;20199;-66
2021/11/01 18:53:37;;;;;;;7.30;6.70;;;9.10;99.90;;;;;;5033092;28;20225;-65
2021/11/01 18:56:09;;;;;;;7.67;7.00;;;9.10;99.90;;;;;;5034246;28;20639;-65
2021/11/01 18:58:39;;;;;;;7.70;7.10;;;9.10;99.90;;;;;;5053741;28;20195;-65
2021/11/01 19:01:08;;;;;;;7.47;6.97;;;9.10;99.90;;;;;;5053085;28;20167;-65
2021/11/01 19:03:43;;;;;;;6.93;6.43;;;9.10;99.90;;;;;;5033427;28;20238;-65
2021/11/01 20:02:46;;;;;;;6.83;6.20;;;9.00;99.90;;;;;;5053077;28;20261;-64
2021/11/01 20:15:10;;;;;;;7.03;6.53;;;8.90;99.90;;;;;;5052002;28;20177;-65
2021/11/01 21:24:31;;;;;;;7.50;7.10;;;8.80;99.90;;;;;;5036219;28;20213;-65
2021/11/01 21:24:34;;;;;;;8.37;7.63;;;7.60;99.90;;;;;;5055377;28;20174;-65
2021/11/01 21:27:02;;;;;;;7.90;7.20;;;7.50;99.90;;;;;;5053643;28;20209;-65
2021/11/01 21:29:31;;;;;;;7.47;7.07;;;7.40;99.90;;;;;;5054747;28;20191;-66
2021/11/01 21:31:58;;;;;;;7.90;7.37;;;7.40;99.90;;;;;;5054917;28;20206;-66
2021/11/01 21:34:38;;;;;;;8.63;8.13;;;7.40;99.90;;;;;;5053479;28;20202;-65
2021/11/01 21:37:06;;;;;;;8.73;7.80;;;7.30;99.90;;;;;;5054947;28;20179;-64
2021/11/01 21:39:33;;;;;;;8.90;8.10;;;7.30;99.90;;;;;;5052752;28;20195;-66
2021/11/01 21:42:00;;;;;;;8.67;7.97;;;7.20;99.90;;;;;;5055056;28;20167;-64
2021/11/01 21:44:26;;;;;;;9.13;8.47;;;7.20;99.90;;;;;;5054270;28;20275;-65
2021/11/01 21:46:51;;;;;;;7.90;7.40;;;7.20;99.90;;;;;;5054683;28;20209;-65
2021/11/01 21:49:18;;;;;;;8.60;8.00;;;7.20;99.90;;;;;;5078590;22;20230;-66
2021/11/01 21:51:44;;;;;;;8.80;8.00;;;7.20;99.90;;;;;;5054577;28;20198;-66
2021/11/01 21:56:57;;;;;;;8.93;8.30;;;7.20;99.90;;;;;;5054881;28;20163;-68
2021/11/01 22:10:40;;;;;;;8.33;7.73;;;7.20;99.90;;;;;;5053922;28;20580;-66
2021/11/01 22:18:47;;;;;;;7.97;7.37;;;7.30;99.90;;;;;;5054069;28;20256;-67
2021/11/01 22:21:17;;;;;;;9.17;8.53;;;7.30;99.90;;;;;;5054041;28;20626;-67
2021/11/01 22:27:10;;;;;;;8.10;7.60;;;7.20;99.90;;;;;;5054237;28;20182;-67
2021/11/01 22:34:38;;;;;;;9.17;8.63;;;7.20;99.90;;;;;;5053714;28;20194;-65
2021/11/01 22:42:31;;;;;;;8.60;7.93;;;7.10;99.90;;;;;;5053990;28;20171;-68
2021/11/01 22:45:17;;;;;;;7.70;7.20;;;7.10;99.90;;;;;;5053505;28;20191;-66
2021/11/01 22:58:26;;;;;;;8.53;7.93;;;6.90;99.90;;;;;;5053161;28;20268;-66
2021/11/01 23:01:00;;;;;;;8.30;7.77;;;6.90;99.90;;;;;;5053052;28;20227;-66
2021/11/01 23:03:43;;;;;;;8.80;8.23;;;6.90;99.90;;;;;;5053303;28;20774;-66
2021/11/01 23:33:21;;;;;;;10.30;7.63;;;7.30;99.90;;;;;;5053196;28;20177;-66
2021/11/01 23:35:47;;;;;;;7.60;7.20;;;7.30;99.90;;;;;;5051434;28;20616;-66
2021/11/01 23:38:12;;;;;;;8.20;7.43;;;7.40;99.90;;;;;;5052643;28;20174;-67
2021/11/01 23:40:38;;;;;;;8.13;7.63;;;7.40;99.90;;;;;;5051577;28;20204;-65
2021/11/01 23:43:06;;;;;;;8.03;7.53;;;7.40;99.90;;;;;;5052512;28;20252;-65
2021/11/01 23:45:36;;;;;;;10.13;9.03;;;7.40;99.90;;;;;;5051572;28;20171;-67
2021/11/01 23:48:02;;;;;;;7.97;7.37;;;7.50;99.90;;;;;;5052278;28;20219;-66
2021/11/01 23:50:33;;;;;;;7.87;7.30;;;7.50;99.90;;;;;;5051970;28;20210;-67
2021/11/01 23:53:06;;;;;;;7.63;7.13;;;7.40;99.90;;;;;;5052267;28;20167;-66
2021/11/01 23:55:32;;;;;;;7.80;7.30;;;7.50;99.90;;;;;;5052732;28;20741;-66
2021/11/01 23:57:58;;;;;;;7.70;7.30;;;7.50;99.90;;;;;;5051347;28;20175;-66
